sensor_id;sensor_type;location;lat;lon;timestamp;temperature;humidity
4374;DHT22;2201;51.100;6.814;2022-07-05T00:00:03;18.80;91.70
4374;DHT22;2201;51.100;6.814;2022-07-05T00:02:30;18.70;92.10
4374;DHT22;2201;51.100;6.814;2022-07-05T00:04:57;18.70;92.40
4374;DHT22;2201;51.100;6.814;2022-07-05T00:07:24;18.70;92.40
4374;DHT22;2201;51.100;6.814;2022-07-05T00:09:53;18.70;91.90
4374;DHT22;2201;51.100;6.814;2022-07-05T00:12:23;18.60;92.70
4374;DHT22;2201;51.100;6.814;2022-07-05T00:14:52;18.60;92.70
4374;DHT22;2201;51.100;6.814;2022-07-05T00:17:18;18.60;92.50
4374;DHT22;2201;51.100;6.814;2022-07-05T00:19:45;18.50;92.10
4374;DHT22;2201;51.100;6.814;2022-07-05T00:22:12;18.50;91.70
4374;DHT22;2201;51.100;6.814;2022-07-05T00:24:40;18.50;91.40
4374;DHT22;2201;51.100;6.814;2022-07-05T00:27:07;18.50;91.70
4374;DHT22;2201;51.100;6.814;2022-07-05T00:29:34;18.40;91.40
4374;DHT22;2201;51.100;6.814;2022-07-05T00:32:03;18.40;91.90
4374;DHT22;2201;51.100;6.814;2022-07-05T00:34:30;18.40;91.60
4374;DHT22;2201;51.100;6.814;2022-07-05T00:36:56;18.40;91.10
4374;DHT22;2201;51.100;6.814;2022-07-05T00:39:23;18.40;91.10
4374;DHT22;2201;51.100;6.814;2022-07-05T00:41:52;18.30;91.00
4374;DHT22;2201;51.100;6.814;2022-07-05T00:44:28;18.30;90.70
4374;DHT22;2201;51.100;6.814;2022-07-05T00:46:56;18.30;91.20
4374;DHT22;2201;51.100;6.814;2022-07-05T00:49:24;18.20;90.80
4374;DHT22;2201;51.100;6.814;2022-07-05T00:51:51;18.20;91.00
4374;DHT22;2201;51.100;6.814;2022-07-05T00:54:18;18.20;91.10
4374;DHT22;2201;51.100;6.814;2022-07-05T00:56:45;18.20;91.10
4374;DHT22;2201;51.100;6.814;2022-07-05T00:59:12;18.10;91.10
4374;DHT22;2201;51.100;6.814;2022-07-05T01:01:39;18.10;90.90
4374;DHT22;2201;51.100;6.814;2022-07-05T01:04:06;18.10;91.10
4374;DHT22;2201;51.100;6.814;2022-07-05T01:06:34;18.00;91.20
4374;DHT22;2201;51.100;6.814;2022-07-05T01:09:02;18.00;91.40
4374;DHT22;2201;51.100;6.814;2022-07-05T01:11:29;18.00;92.30
4374;DHT22;2201;51.100;6.814;2022-07-05T01:13:58;17.90;92.20
4374;DHT22;2201;51.100;6.814;2022-07-05T01:16:26;17.90;92.40
4374;DHT22;2201;51.100;6.814;2022-07-05T01:18:53;17.80;92.80
4374;DHT22;2201;51.100;6.814;2022-07-05T01:21:21;17.80;93.00
4374;DHT22;2201;51.100;6.814;2022-07-05T01:23:51;17.80;93.10
4374;DHT22;2201;51.100;6.814;2022-07-05T01:26:18;17.80;93.20
4374;DHT22;2201;51.100;6.814;2022-07-05T01:28:45;17.70;93.40
4374;DHT22;2201;51.100;6.814;2022-07-05T01:31:12;17.70;92.80
4374;DHT22;2201;51.100;6.814;2022-07-05T01:33:39;17.70;94.00
4374;DHT22;2201;51.100;6.814;2022-07-05T01:36:06;17.70;93.60
4374;DHT22;2201;51.100;6.814;2022-07-05T01:38:34;17.70;93.90
4374;DHT22;2201;51.100;6.814;2022-07-05T01:41:02;17.60;94.10
4374;DHT22;2201;51.100;6.814;2022-07-05T01:43:29;17.60;93.40
4374;DHT22;2201;51.100;6.814;2022-07-05T01:45:57;17.60;94.20
4374;DHT22;2201;51.100;6.814;2022-07-05T01:48:26;17.60;94.40
4374;DHT22;2201;51.100;6.814;2022-07-05T01:51:01;17.60;94.70
4374;DHT22;2201;51.100;6.814;2022-07-05T01:53:31;17.50;94.60
4374;DHT22;2201;51.100;6.814;2022-07-05T01:55:59;17.50;95.10
4374;DHT22;2201;51.100;6.814;2022-07-05T01:58:29;17.50;95.00
4374;DHT22;2201;51.100;6.814;2022-07-05T02:00:57;17.40;94.50
4374;DHT22;2201;51.100;6.814;2022-07-05T02:03:25;17.40;95.00
4374;DHT22;2201;51.100;6.814;2022-07-05T02:05:53;17.40;95.20
4374;DHT22;2201;51.100;6.814;2022-07-05T02:08:20;17.40;95.30
4374;DHT22;2201;51.100;6.814;2022-07-05T02:10:47;17.40;95.00
4374;DHT22;2201;51.100;6.814;2022-07-05T02:13:14;17.40;95.60
4374;DHT22;2201;51.100;6.814;2022-07-05T02:15:43;17.40;95.60
4374;DHT22;2201;51.100;6.814;2022-07-05T02:18:09;17.50;94.90
4374;DHT22;2201;51.100;6.814;2022-07-05T02:20:38;17.50;94.80
4374;DHT22;2201;51.100;6.814;2022-07-05T02:23:06;17.60;94.70
4374;DHT22;2201;51.100;6.814;2022-07-05T02:25:33;17.60;95.50
4374;DHT22;2201;51.100;6.814;2022-07-05T02:28:01;17.60;95.50
4374;DHT22;2201;51.100;6.814;2022-07-05T02:30:28;17.60;95.00
4374;DHT22;2201;51.100;6.814;2022-07-05T02:32:56;17.60;94.80
4374;DHT22;2201;51.100;6.814;2022-07-05T02:35:23;17.60;94.90
4374;DHT22;2201;51.100;6.814;2022-07-05T02:37:50;17.50;95.70
4374;DHT22;2201;51.100;6.814;2022-07-05T02:40:17;17.50;95.10
4374;DHT22;2201;51.100;6.814;2022-07-05T02:42:44;17.40;94.90
4374;DHT22;2201;51.100;6.814;2022-07-05T02:45:13;17.40;95.30
4374;DHT22;2201;51.100;6.814;2022-07-05T02:47:40;17.40;94.60
4374;DHT22;2201;51.100;6.814;2022-07-05T02:50:10;17.40;95.60
4374;DHT22;2201;51.100;6.814;2022-07-05T02:52:37;17.30;95.60
4374;DHT22;2201;51.100;6.814;2022-07-05T02:55:05;17.30;95.60
4374;DHT22;2201;51.100;6.814;2022-07-05T02:57:32;17.30;95.70
4374;DHT22;2201;51.100;6.814;2022-07-05T02:59:59;17.30;95.90
4374;DHT22;2201;51.100;6.814;2022-07-05T03:02:26;17.30;96.60
4374;DHT22;2201;51.100;6.814;2022-07-05T03:04:53;17.40;97.10
4374;DHT22;2201;51.100;6.814;2022-07-05T03:07:22;17.40;96.30
4374;DHT22;2201;51.100;6.814;2022-07-05T03:09:49;17.40;96.40
4374;DHT22;2201;51.100;6.814;2022-07-05T03:12:16;17.50;95.30
4374;DHT22;2201;51.100;6.814;2022-07-05T03:14:43;17.40;95.60
4374;DHT22;2201;51.100;6.814;2022-07-05T03:17:10;17.40;95.60
4374;DHT22;2201;51.100;6.814;2022-07-05T03:19:37;17.40;96.10
4374;DHT22;2201;51.100;6.814;2022-07-05T03:22:04;17.40;96.80
4374;DHT22;2201;51.100;6.814;2022-07-05T03:24:32;17.40;96.40
4374;DHT22;2201;51.100;6.814;2022-07-05T03:27:00;17.40;96.20
4374;DHT22;2201;51.100;6.814;2022-07-05T03:29:27;17.40;96.60
4374;DHT22;2201;51.100;6.814;2022-07-05T03:31:54;17.40;96.70
4374;DHT22;2201;51.100;6.814;2022-07-05T03:34:21;17.30;97.00
4374;DHT22;2201;51.100;6.814;2022-07-05T03:36:48;17.30;96.50
4374;DHT22;2201;51.100;6.814;2022-07-05T03:39:15;17.30;96.80
4374;DHT22;2201;51.100;6.814;2022-07-05T03:41:43;17.30;96.50
4374;DHT22;2201;51.100;6.814;2022-07-05T03:44:10;17.20;96.70
4374;DHT22;2201;51.100;6.814;2022-07-05T03:46:38;17.20;97.10
4374;DHT22;2201;51.100;6.814;2022-07-05T03:49:05;17.10;97.00
4374;DHT22;2201;51.100;6.814;2022-07-05T03:51:32;17.10;97.40
4374;DHT22;2201;51.100;6.814;2022-07-05T03:53:59;17.10;96.70
4374;DHT22;2201;51.100;6.814;2022-07-05T03:56:26;17.20;97.40
4374;DHT22;2201;51.100;6.814;2022-07-05T03:58:55;17.20;97.00
4374;DHT22;2201;51.100;6.814;2022-07-05T04:01:22;17.30;97.50
4374;DHT22;2201;51.100;6.814;2022-07-05T04:03:49;17.30;97.30
4374;DHT22;2201;51.100;6.814;2022-07-05T04:06:16;17.40;97.40
4374;DHT22;2201;51.100;6.814;2022-07-05T04:08:43;17.40;97.40
4374;DHT22;2201;51.100;6.814;2022-07-05T04:11:10;17.40;97.50
4374;DHT22;2201;51.100;6.814;2022-07-05T04:13:38;17.40;97.10
4374;DHT22;2201;51.100;6.814;2022-07-05T04:16:07;17.40;97.60
4374;DHT22;2201;51.100;6.814;2022-07-05T04:18:34;17.40;97.10
4374;DHT22;2201;51.100;6.814;2022-07-05T04:21:01;17.40;97.20
4374;DHT22;2201;51.100;6.814;2022-07-05T04:23:29;17.40;97.50
4374;DHT22;2201;51.100;6.814;2022-07-05T04:25:56;17.40;97.40
4374;DHT22;2201;51.100;6.814;2022-07-05T04:28:23;17.40;97.20
4374;DHT22;2201;51.100;6.814;2022-07-05T04:30:50;17.40;97.30
4374;DHT22;2201;51.100;6.814;2022-07-05T04:33:18;17.40;96.90
4374;DHT22;2201;51.100;6.814;2022-07-05T04:35:45;17.50;97.20
4374;DHT22;2201;51.100;6.814;2022-07-05T04:38:12;17.50;96.90
4374;DHT22;2201;51.100;6.814;2022-07-05T04:40:39;17.60;96.60
4374;DHT22;2201;51.100;6.814;2022-07-05T04:43:06;17.70;96.90
4374;DHT22;2201;51.100;6.814;2022-07-05T04:45:33;17.70;97.30
4374;DHT22;2201;51.100;6.814;2022-07-05T04:48:00;17.80;97.30
4374;DHT22;2201;51.100;6.814;2022-07-05T04:50:29;18.00;97.40
4374;DHT22;2201;51.100;6.814;2022-07-05T04:52:56;18.10;97.00
4374;DHT22;2201;51.100;6.814;2022-07-05T04:55:23;18.30;96.00
4374;DHT22;2201;51.100;6.814;2022-07-05T04:57:51;18.50;95.90
4374;DHT22;2201;51.100;6.814;2022-07-05T05:00:18;18.80;95.00
4374;DHT22;2201;51.100;6.814;2022-07-05T05:02:45;19.00;93.20
4374;DHT22;2201;51.100;6.814;2022-07-05T05:05:12;19.10;92.40
4374;DHT22;2201;51.100;6.814;2022-07-05T05:07:43;19.20;91.80
4374;DHT22;2201;51.100;6.814;2022-07-05T05:10:11;19.20;92.80
4374;DHT22;2201;51.100;6.814;2022-07-05T05:12:38;19.40;93.60
4374;DHT22;2201;51.100;6.814;2022-07-05T05:15:07;19.60;93.20
4374;DHT22;2201;51.100;6.814;2022-07-05T05:17:36;19.70;91.30
4374;DHT22;2201;51.100;6.814;2022-07-05T05:20:05;19.80;88.10
4374;DHT22;2201;51.100;6.814;2022-07-05T05:22:33;20.00;89.40
4374;DHT22;2201;51.100;6.814;2022-07-05T05:25:02;20.20;87.00
4374;DHT22;2201;51.100;6.814;2022-07-05T05:27:29;20.50;87.10
4374;DHT22;2201;51.100;6.814;2022-07-05T05:29:56;20.60;86.50
4374;DHT22;2201;51.100;6.814;2022-07-05T05:32:23;20.90;86.70
4374;DHT22;2201;51.100;6.814;2022-07-05T05:34:50;21.10;86.30
4374;DHT22;2201;51.100;6.814;2022-07-05T05:37:17;21.30;85.10
4374;DHT22;2201;51.100;6.814;2022-07-05T05:39:44;21.40;84.20
4374;DHT22;2201;51.100;6.814;2022-07-05T05:42:13;21.60;84.40
4374;DHT22;2201;51.100;6.814;2022-07-05T05:44:43;21.80;83.80
4374;DHT22;2201;51.100;6.814;2022-07-05T05:47:13;22.00;83.70
4374;DHT22;2201;51.100;6.814;2022-07-05T05:49:40;22.00;83.90
4374;DHT22;2201;51.100;6.814;2022-07-05T05:52:07;22.00;84.90
4374;DHT22;2201;51.100;6.814;2022-07-05T05:54:34;22.20;82.90
4374;DHT22;2201;51.100;6.814;2022-07-05T05:57:03;22.30;82.10
4374;DHT22;2201;51.100;6.814;2022-07-05T05:59:32;22.30;81.70
4374;DHT22;2201;51.100;6.814;2022-07-05T06:01:59;22.40;82.00
4374;DHT22;2201;51.100;6.814;2022-07-05T06:04:26;22.50;83.30
4374;DHT22;2201;51.100;6.814;2022-07-05T06:06:53;22.60;83.00
4374;DHT22;2201;51.100;6.814;2022-07-05T06:09:20;22.70;83.90
4374;DHT22;2201;51.100;6.814;2022-07-05T06:11:47;22.90;82.50
4374;DHT22;2201;51.100;6.814;2022-07-05T06:14:14;23.20;81.80
4374;DHT22;2201;51.100;6.814;2022-07-05T06:16:42;23.40;82.00
4374;DHT22;2201;51.100;6.814;2022-07-05T06:19:09;23.60;80.80
4374;DHT22;2201;51.100;6.814;2022-07-05T06:21:36;23.70;80.30
4374;DHT22;2201;51.100;6.814;2022-07-05T06:24:03;23.90;80.00
4374;DHT22;2201;51.100;6.814;2022-07-05T06:26:33;23.90;79.60
4374;DHT22;2201;51.100;6.814;2022-07-05T06:29:00;23.90;79.70
4374;DHT22;2201;51.100;6.814;2022-07-05T06:31:27;24.10;79.50
4374;DHT22;2201;51.100;6.814;2022-07-05T06:33:55;24.30;78.10
4374;DHT22;2201;51.100;6.814;2022-07-05T06:36:22;24.50;78.60
4374;DHT22;2201;51.100;6.814;2022-07-05T06:38:50;24.80;77.80
4374;DHT22;2201;51.100;6.814;2022-07-05T06:41:20;24.90;76.90
4374;DHT22;2201;51.100;6.814;2022-07-05T06:43:46;25.00;77.10
4374;DHT22;2201;51.100;6.814;2022-07-05T06:46:14;25.00;77.00
4374;DHT22;2201;51.100;6.814;2022-07-05T06:48:41;25.00;77.10
4374;DHT22;2201;51.100;6.814;2022-07-05T06:51:11;25.10;76.60
4374;DHT22;2201;51.100;6.814;2022-07-05T06:53:38;25.40;75.30
4374;DHT22;2201;51.100;6.814;2022-07-05T06:56:09;25.70;75.40
4374;DHT22;2201;51.100;6.814;2022-07-05T06:58:39;25.90;75.40
4374;DHT22;2201;51.100;6.814;2022-07-05T07:01:06;26.00;75.40
4374;DHT22;2201;51.100;6.814;2022-07-05T07:03:34;26.10;75.00
4374;DHT22;2201;51.100;6.814;2022-07-05T07:06:01;26.30;74.90
4374;DHT22;2201;51.100;6.814;2022-07-05T07:08:32;26.40;73.50
4374;DHT22;2201;51.100;6.814;2022-07-05T07:11:16;26.40;71.90
4374;DHT22;2201;51.100;6.814;2022-07-05T07:13:44;26.50;71.30
4374;DHT22;2201;51.100;6.814;2022-07-05T07:16:11;26.70;71.90
4374;DHT22;2201;51.100;6.814;2022-07-05T07:18:38;26.80;71.20
4374;DHT22;2201;51.100;6.814;2022-07-05T07:21:09;27.00;70.20
4374;DHT22;2201;51.100;6.814;2022-07-05T07:23:37;27.00;68.50
4374;DHT22;2201;51.100;6.814;2022-07-05T07:26:05;27.10;67.80
4374;DHT22;2201;51.100;6.814;2022-07-05T07:28:35;27.30;68.30
4374;DHT22;2201;51.100;6.814;2022-07-05T07:31:02;27.40;67.80
4374;DHT22;2201;51.100;6.814;2022-07-05T07:33:29;27.40;68.20
4374;DHT22;2201;51.100;6.814;2022-07-05T07:35:59;27.40;68.30
4374;DHT22;2201;51.100;6.814;2022-07-05T07:38:29;27.50;67.50
4374;DHT22;2201;51.100;6.814;2022-07-05T07:40:58;27.70;67.20
4374;DHT22;2201;51.100;6.814;2022-07-05T07:43:26;27.90;67.50
4374;DHT22;2201;51.100;6.814;2022-07-05T07:45:53;27.90;66.50
4374;DHT22;2201;51.100;6.814;2022-07-05T07:48:20;27.90;67.10
4374;DHT22;2201;51.100;6.814;2022-07-05T07:50:50;27.80;65.00
4374;DHT22;2201;51.100;6.814;2022-07-05T07:53:20;27.60;66.30
4374;DHT22;2201;51.100;6.814;2022-07-05T07:55:48;27.60;65.50
4374;DHT22;2201;51.100;6.814;2022-07-05T07:58:17;27.80;67.90
4374;DHT22;2201;51.100;6.814;2022-07-05T08:00:44;27.80;66.20
4374;DHT22;2201;51.100;6.814;2022-07-05T08:03:11;27.70;65.90
4374;DHT22;2201;51.100;6.814;2022-07-05T08:05:38;27.70;67.40
4374;DHT22;2201;51.100;6.814;2022-07-05T08:08:05;27.90;66.20
4374;DHT22;2201;51.100;6.814;2022-07-05T08:10:32;28.10;65.10
4374;DHT22;2201;51.100;6.814;2022-07-05T08:13:00;28.20;63.10
4374;DHT22;2201;51.100;6.814;2022-07-05T08:15:29;28.10;63.70
4374;DHT22;2201;51.100;6.814;2022-07-05T08:17:56;28.00;64.70
4374;DHT22;2201;51.100;6.814;2022-07-05T08:20:40;28.00;64.90
4374;DHT22;2201;51.100;6.814;2022-07-05T08:23:25;28.00;63.80
4374;DHT22;2201;51.100;6.814;2022-07-05T08:25:52;28.00;65.30
4374;DHT22;2201;51.100;6.814;2022-07-05T08:28:19;28.10;63.90
4374;DHT22;2201;51.100;6.814;2022-07-05T08:30:47;28.20;61.50
4374;DHT22;2201;51.100;6.814;2022-07-05T08:33:14;28.40;64.40
4374;DHT22;2201;51.100;6.814;2022-07-05T08:35:41;28.60;64.20
4374;DHT22;2201;51.100;6.814;2022-07-05T08:38:08;28.60;62.20
4374;DHT22;2201;51.100;6.814;2022-07-05T08:40:39;28.80;63.00
4374;DHT22;2201;51.100;6.814;2022-07-05T08:43:10;29.00;62.30
4374;DHT22;2201;51.100;6.814;2022-07-05T08:45:38;29.20;62.00
4374;DHT22;2201;51.100;6.814;2022-07-05T08:48:08;29.20;62.70
4374;DHT22;2201;51.100;6.814;2022-07-05T08:50:37;29.20;61.00
4374;DHT22;2201;51.100;6.814;2022-07-05T08:53:06;29.20;62.10
4374;DHT22;2201;51.100;6.814;2022-07-05T08:55:36;29.10;59.90
4374;DHT22;2201;51.100;6.814;2022-07-05T08:58:04;29.20;58.50
4374;DHT22;2201;51.100;6.814;2022-07-05T09:00:31;29.20;58.60
4374;DHT22;2201;51.100;6.814;2022-07-05T09:02:59;29.30;60.60
4374;DHT22;2201;51.100;6.814;2022-07-05T09:05:34;29.50;59.60
4374;DHT22;2201;51.100;6.814;2022-07-05T09:08:04;29.70;61.20
4374;DHT22;2201;51.100;6.814;2022-07-05T09:10:33;29.80;58.70
4374;DHT22;2201;51.100;6.814;2022-07-05T09:13:06;29.90;60.20
4374;DHT22;2201;51.100;6.814;2022-07-05T09:15:34;29.80;58.80
4374;DHT22;2201;51.100;6.814;2022-07-05T09:18:04;29.90;58.00
4374;DHT22;2201;51.100;6.814;2022-07-05T09:20:37;30.00;57.60
4374;DHT22;2201;51.100;6.814;2022-07-05T09:23:07;30.10;57.00
4374;DHT22;2201;51.100;6.814;2022-07-05T09:25:37;30.20;57.90
4374;DHT22;2201;51.100;6.814;2022-07-05T09:28:05;30.30;56.70
4374;DHT22;2201;51.100;6.814;2022-07-05T09:30:33;30.30;58.00
4374;DHT22;2201;51.100;6.814;2022-07-05T09:33:08;30.20;57.30
4374;DHT22;2201;51.100;6.814;2022-07-05T09:35:39;29.90;57.10
4374;DHT22;2201;51.100;6.814;2022-07-05T09:38:16;29.60;57.80
4374;DHT22;2201;51.100;6.814;2022-07-05T09:40:46;29.60;59.50
4374;DHT22;2201;51.100;6.814;2022-07-05T09:43:16;29.80;57.00
4374;DHT22;2201;51.100;6.814;2022-07-05T09:45:52;29.90;58.10
4374;DHT22;2201;51.100;6.814;2022-07-05T09:48:19;30.40;57.00
4374;DHT22;2201;51.100;6.814;2022-07-05T09:50:48;30.70;57.30
4374;DHT22;2201;51.100;6.814;2022-07-05T09:53:15;30.60;57.80
4374;DHT22;2201;51.100;6.814;2022-07-05T09:56:01;30.50;55.90
4374;DHT22;2201;51.100;6.814;2022-07-05T09:58:29;30.20;57.40
4374;DHT22;2201;51.100;6.814;2022-07-05T10:00:56;29.50;58.10
4374;DHT22;2201;51.100;6.814;2022-07-05T10:03:23;29.10;59.20
4374;DHT22;2201;51.100;6.814;2022-07-05T10:05:51;29.00;60.70
4374;DHT22;2201;51.100;6.814;2022-07-05T10:08:20;29.10;61.10
4374;DHT22;2201;51.100;6.814;2022-07-05T10:10:48;29.40;60.00
4374;DHT22;2201;51.100;6.814;2022-07-05T10:13:16;29.70;58.40
4374;DHT22;2201;51.100;6.814;2022-07-05T10:15:44;29.80;59.70
4374;DHT22;2201;51.100;6.814;2022-07-05T10:18:13;29.70;57.80
4374;DHT22;2201;51.100;6.814;2022-07-05T10:20:44;29.70;58.50
4374;DHT22;2201;51.100;6.814;2022-07-05T10:23:15;29.40;58.60
4374;DHT22;2201;51.100;6.814;2022-07-05T10:25:44;28.90;59.80
4374;DHT22;2201;51.100;6.814;2022-07-05T10:28:14;28.60;61.00
4374;DHT22;2201;51.100;6.814;2022-07-05T10:30:44;28.60;61.50
4374;DHT22;2201;51.100;6.814;2022-07-05T10:33:13;28.40;61.70
4374;DHT22;2201;51.100;6.814;2022-07-05T10:35:42;28.10;61.70
4374;DHT22;2201;51.100;6.814;2022-07-05T10:38:10;27.80;62.50
4374;DHT22;2201;51.100;6.814;2022-07-05T10:40:40;27.90;62.90
4374;DHT22;2201;51.100;6.814;2022-07-05T10:43:07;28.30;62.30
4374;DHT22;2201;51.100;6.814;2022-07-05T10:45:38;28.90;62.10
4374;DHT22;2201;51.100;6.814;2022-07-05T10:48:17;29.40;60.30
4374;DHT22;2201;51.100;6.814;2022-07-05T10:50:46;29.80;58.50
4374;DHT22;2201;51.100;6.814;2022-07-05T10:53:16;30.00;57.40
4374;DHT22;2201;51.100;6.814;2022-07-05T10:55:51;30.00;57.10
4374;DHT22;2201;51.100;6.814;2022-07-05T10:58:29;29.70;57.80
4374;DHT22;2201;51.100;6.814;2022-07-05T11:01:31;29.40;57.00
4374;DHT22;2201;51.100;6.814;2022-07-05T11:06:56;29.50;58.80
4374;DHT22;2201;51.100;6.814;2022-07-05T11:09:24;29.80;59.00
4374;DHT22;2201;51.100;6.814;2022-07-05T11:12:09;30.20;56.50
4374;DHT22;2201;51.100;6.814;2022-07-05T11:14:39;30.70;56.90
4374;DHT22;2201;51.100;6.814;2022-07-05T11:17:19;31.00;57.10
4374;DHT22;2201;51.100;6.814;2022-07-05T11:20:09;31.20;56.70
4374;DHT22;2201;51.100;6.814;2022-07-05T11:22:38;31.30;54.80
4374;DHT22;2201;51.100;6.814;2022-07-05T11:25:08;30.90;56.10
4374;DHT22;2201;51.100;6.814;2022-07-05T11:28:05;30.50;56.70
4374;DHT22;2201;51.100;6.814;2022-07-05T11:31:00;30.30;58.10
4374;DHT22;2201;51.100;6.814;2022-07-05T11:33:35;30.50;58.50
4374;DHT22;2201;51.100;6.814;2022-07-05T11:36:03;30.50;56.40
4374;DHT22;2201;51.100;6.814;2022-07-05T11:38:32;30.30;55.80
4374;DHT22;2201;51.100;6.814;2022-07-05T11:41:46;30.20;55.80
4374;DHT22;2201;51.100;6.814;2022-07-05T11:44:32;30.10;56.90
4374;DHT22;2201;51.100;6.814;2022-07-05T11:47:00;30.00;57.30
4374;DHT22;2201;51.100;6.814;2022-07-05T11:49:27;30.00;57.10
4374;DHT22;2201;51.100;6.814;2022-07-05T11:51:58;30.00;56.60
4374;DHT22;2201;51.100;6.814;2022-07-05T11:54:26;30.00;57.50
4374;DHT22;2201;51.100;6.814;2022-07-05T11:56:54;29.90;55.00
4374;DHT22;2201;51.100;6.814;2022-07-05T11:59:24;30.00;57.80
4374;DHT22;2201;51.100;6.814;2022-07-05T12:02:01;30.20;57.70
4374;DHT22;2201;51.100;6.814;2022-07-05T12:04:29;30.20;56.70
4374;DHT22;2201;51.100;6.814;2022-07-05T12:06:58;29.80;57.50
4374;DHT22;2201;51.100;6.814;2022-07-05T12:09:26;29.60;58.90
4374;DHT22;2201;51.100;6.814;2022-07-05T12:12:17;29.70;58.10
4374;DHT22;2201;51.100;6.814;2022-07-05T12:15:03;29.80;58.50
4374;DHT22;2201;51.100;6.814;2022-07-05T12:17:33;29.90;56.60
4374;DHT22;2201;51.100;6.814;2022-07-05T12:20:01;29.70;56.50
4374;DHT22;2201;51.100;6.814;2022-07-05T12:22:29;29.40;56.80
4374;DHT22;2201;51.100;6.814;2022-07-05T12:24:57;29.40;57.20
4374;DHT22;2201;51.100;6.814;2022-07-05T12:27:24;29.50;56.60
4374;DHT22;2201;51.100;6.814;2022-07-05T12:29:52;29.70;57.90
4374;DHT22;2201;51.100;6.814;2022-07-05T12:32:19;30.10;58.00
4374;DHT22;2201;51.100;6.814;2022-07-05T12:34:48;30.60;55.30
4374;DHT22;2201;51.100;6.814;2022-07-05T12:37:20;31.00;54.50
4374;DHT22;2201;51.100;6.814;2022-07-05T12:39:47;31.10;54.20
4374;DHT22;2201;51.100;6.814;2022-07-05T12:42:30;31.30;55.20
4374;DHT22;2201;51.100;6.814;2022-07-05T12:45:12;31.20;53.80
4374;DHT22;2201;51.100;6.814;2022-07-05T12:47:49;31.10;55.30
4374;DHT22;2201;51.100;6.814;2022-07-05T12:50:21;31.30;55.10
4374;DHT22;2201;51.100;6.814;2022-07-05T12:53:01;31.60;54.60
4374;DHT22;2201;51.100;6.814;2022-07-05T12:55:49;31.80;53.10
4374;DHT22;2201;51.100;6.814;2022-07-05T12:58:37;31.90;55.00
4374;DHT22;2201;51.100;6.814;2022-07-05T13:01:21;31.80;53.50
4374;DHT22;2201;51.100;6.814;2022-07-05T13:04:00;31.50;53.60
4374;DHT22;2201;51.100;6.814;2022-07-05T13:06:47;31.50;54.40
4374;DHT22;2201;51.100;6.814;2022-07-05T13:09:16;31.40;53.80
4374;DHT22;2201;51.100;6.814;2022-07-05T13:12:09;31.30;53.80
4374;DHT22;2201;51.100;6.814;2022-07-05T13:14:38;31.40;53.30
4374;DHT22;2201;51.100;6.814;2022-07-05T13:17:07;31.60;54.00
4374;DHT22;2201;51.100;6.814;2022-07-05T13:19:35;31.70;54.50
4374;DHT22;2201;51.100;6.814;2022-07-05T13:22:04;31.90;54.10
4374;DHT22;2201;51.100;6.814;2022-07-05T13:24:44;31.90;53.20
4374;DHT22;2201;51.100;6.814;2022-07-05T13:27:12;31.70;52.20
4374;DHT22;2201;51.100;6.814;2022-07-05T13:29:40;31.20;53.40
4374;DHT22;2201;51.100;6.814;2022-07-05T13:32:07;31.10;52.30
4374;DHT22;2201;51.100;6.814;2022-07-05T13:34:34;31.10;54.90
4374;DHT22;2201;51.100;6.814;2022-07-05T13:37:03;31.40;54.00
4374;DHT22;2201;51.100;6.814;2022-07-05T13:42:00;31.40;54.60
4374;DHT22;2201;51.100;6.814;2022-07-05T13:44:29;31.30;53.40
4374;DHT22;2201;51.100;6.814;2022-07-05T13:46:56;31.20;54.60
4374;DHT22;2201;51.100;6.814;2022-07-05T13:49:23;31.10;53.50
4374;DHT22;2201;51.100;6.814;2022-07-05T13:51:50;31.10;54.60
4374;DHT22;2201;51.100;6.814;2022-07-05T13:54:19;31.10;53.40
4374;DHT22;2201;51.100;6.814;2022-07-05T13:56:46;31.00;54.50
4374;DHT22;2201;51.100;6.814;2022-07-05T13:59:12;31.10;55.60
4374;DHT22;2201;51.100;6.814;2022-07-05T14:01:39;31.40;54.60
4374;DHT22;2201;51.100;6.814;2022-07-05T14:04:06;31.80;55.70
4374;DHT22;2201;51.100;6.814;2022-07-05T14:06:34;32.20;53.20
4374;DHT22;2201;51.100;6.814;2022-07-05T14:09:03;32.40;53.20
4374;DHT22;2201;51.100;6.814;2022-07-05T14:11:31;32.40;53.60
4374;DHT22;2201;51.100;6.814;2022-07-05T14:13:59;32.30;52.70
4374;DHT22;2201;51.100;6.814;2022-07-05T14:16:37;31.80;53.00
4374;DHT22;2201;51.100;6.814;2022-07-05T14:19:04;31.20;52.60
4374;DHT22;2201;51.100;6.814;2022-07-05T14:21:31;30.70;54.30
4374;DHT22;2201;51.100;6.814;2022-07-05T14:23:59;30.30;54.50
4374;DHT22;2201;51.100;6.814;2022-07-05T14:26:26;29.90;54.80
4374;DHT22;2201;51.100;6.814;2022-07-05T14:28:55;29.50;55.20
4374;DHT22;2201;51.100;6.814;2022-07-05T14:31:22;29.30;55.90
4374;DHT22;2201;51.100;6.814;2022-07-05T14:33:50;29.20;54.90
4374;DHT22;2201;51.100;6.814;2022-07-05T14:36:17;29.50;55.90
4374;DHT22;2201;51.100;6.814;2022-07-05T14:38:45;29.90;57.10
4374;DHT22;2201;51.100;6.814;2022-07-05T14:41:12;29.90;55.90
4374;DHT22;2201;51.100;6.814;2022-07-05T14:43:39;29.90;55.80
4374;DHT22;2201;51.100;6.814;2022-07-05T14:46:07;29.70;57.10
4374;DHT22;2201;51.100;6.814;2022-07-05T14:48:37;29.70;56.10
4374;DHT22;2201;51.100;6.814;2022-07-05T14:51:05;29.90;56.00
4374;DHT22;2201;51.100;6.814;2022-07-05T14:53:34;30.10;56.50
4374;DHT22;2201;51.100;6.814;2022-07-05T14:56:01;30.20;55.80
4374;DHT22;2201;51.100;6.814;2022-07-05T14:58:30;30.30;55.10
4374;DHT22;2201;51.100;6.814;2022-07-05T15:00:58;30.50;54.70
4374;DHT22;2201;51.100;6.814;2022-07-05T15:03:27;30.50;55.10
4374;DHT22;2201;51.100;6.814;2022-07-05T15:05:54;30.40;55.30
4374;DHT22;2201;51.100;6.814;2022-07-05T15:08:22;30.00;55.10
4374;DHT22;2201;51.100;6.814;2022-07-05T15:10:51;29.60;56.10
4374;DHT22;2201;51.100;6.814;2022-07-05T15:13:18;29.20;56.60
4374;DHT22;2201;51.100;6.814;2022-07-05T15:15:46;29.00;57.70
4374;DHT22;2201;51.100;6.814;2022-07-05T15:18:14;28.80;59.10
4374;DHT22;2201;51.100;6.814;2022-07-05T15:20:43;28.70;60.00
4374;DHT22;2201;51.100;6.814;2022-07-05T15:23:10;28.60;60.30
4374;DHT22;2201;51.100;6.814;2022-07-05T15:25:37;28.70;60.10
4374;DHT22;2201;51.100;6.814;2022-07-05T15:28:05;29.00;60.60
4374;DHT22;2201;51.100;6.814;2022-07-05T15:30:35;29.10;59.80
4374;DHT22;2201;51.100;6.814;2022-07-05T15:33:03;29.10;60.60
4374;DHT22;2201;51.100;6.814;2022-07-05T15:35:45;29.10;60.60
4374;DHT22;2201;51.100;6.814;2022-07-05T15:38:12;28.70;60.30
4374;DHT22;2201;51.100;6.814;2022-07-05T15:40:39;28.70;61.50
4374;DHT22;2201;51.100;6.814;2022-07-05T15:43:06;28.70;60.60
4374;DHT22;2201;51.100;6.814;2022-07-05T15:45:34;28.70;61.80
4374;DHT22;2201;51.100;6.814;2022-07-05T15:48:01;28.50;61.40
4374;DHT22;2201;51.100;6.814;2022-07-05T15:50:28;28.20;62.00
4374;DHT22;2201;51.100;6.814;2022-07-05T15:52:57;27.90;62.00
4374;DHT22;2201;51.100;6.814;2022-07-05T15:55:24;27.80;62.50
4374;DHT22;2201;51.100;6.814;2022-07-05T15:57:52;27.40;62.30
4374;DHT22;2201;51.100;6.814;2022-07-05T16:00:26;27.10;63.20
4374;DHT22;2201;51.100;6.814;2022-07-05T16:02:55;26.90;63.40
4374;DHT22;2201;51.100;6.814;2022-07-05T16:05:23;26.80;63.60
4374;DHT22;2201;51.100;6.814;2022-07-05T16:07:51;26.80;63.80
4374;DHT22;2201;51.100;6.814;2022-07-05T16:10:20;26.70;63.70
4374;DHT22;2201;51.100;6.814;2022-07-05T16:12:49;26.60;64.30
4374;DHT22;2201;51.100;6.814;2022-07-05T16:15:16;26.40;64.90
4374;DHT22;2201;51.100;6.814;2022-07-05T16:17:57;26.20;66.00
4374;DHT22;2201;51.100;6.814;2022-07-05T16:20:25;26.30;65.20